sensor_id;sensor_type;location;lat;lon;timestamp;pressure;altitude;pressure_sealevel;temperature;humidity
13705;BME280;6924;52.122;9.952;2022-09-06T00:01:18;100813.06;;;20.61;62.24
13705;BME280;6924;52.122;9.952;2022-09-06T00:03:46;100804.44;;;20.61;62.18
13705;BME280;6924;52.122;9.952;2022-09-06T00:06:14;100799.91;;;20.60;62.61
13705;BME280;6924;52.122;9.952;2022-09-06T00:08:42;100801.31;;;20.51;63.09
13705;BME280;6924;52.122;9.952;2022-09-06T00:11:09;100811.06;;;20.46;63.10
13705;BME280;6924;52.122;9.952;2022-09-06T00:13:36;100811.75;;;20.39;63.59
13705;BME280;6924;52.122;9.952;2022-09-06T00:16:06;100806.06;;;20.43;63.13
13705;BME280;6924;52.122;9.952;2022-09-06T00:18:33;100814.63;;;20.39;63.27
13705;BME280;6924;52.122;9.952;2022-09-06T00:20:59;100810.28;;;20.30;63.54
13705;BME280;6924;52.122;9.952;2022-09-06T00:23:26;100812.22;;;20.26;63.94
13705;BME280;6924;52.122;9.952;2022-09-06T00:25:52;100806.47;;;20.26;63.70
13705;BME280;6924;52.122;9.952;2022-09-06T00:28:18;100799.44;;;20.23;64.09
13705;BME280;6924;52.122;9.952;2022-09-06T00:30:45;100799.09;;;20.25;64.09
13705;BME280;6924;52.122;9.952;2022-09-06T00:33:13;100791.50;;;20.16;64.34
13705;BME280;6924;52.122;9.952;2022-09-06T00:35:40;100789.22;;;20.06;64.82
13705;BME280;6924;52.122;9.952;2022-09-06T00:38:08;100787.91;;;20.03;65.02
13705;BME280;6924;52.122;9.952;2022-09-06T00:40:35;100791.91;;;19.99;65.17
13705;BME280;6924;52.122;9.952;2022-09-06T00:43:01;100794.25;;;19.93;64.79
13705;BME280;6924;52.122;9.952;2022-09-06T00:45:28;100797.50;;;19.92;65.12
13705;BME280;6924;52.122;9.952;2022-09-06T00:47:57;100807.75;;;19.93;65.10
13705;BME280;6924;52.122;9.952;2022-09-06T00:50:26;100800.00;;;19.93;65.34
13705;BME280;6924;52.122;9.952;2022-09-06T00:52:53;100802.94;;;19.97;65.22
13705;BME280;6924;52.122;9.952;2022-09-06T00:55:20;100805.91;;;20.00;65.36
13705;BME280;6924;52.122;9.952;2022-09-06T00:57:48;100813.41;;;20.05;65.22
13705;BME280;6924;52.122;9.952;2022-09-06T01:00:17;100814.31;;;20.09;65.31
13705;BME280;6924;52.122;9.952;2022-09-06T01:02:44;100800.47;;;20.15;65.73
13705;BME280;6924;52.122;9.952;2022-09-06T01:05:10;100809.19;;;20.18;65.32
13705;BME280;6924;52.122;9.952;2022-09-06T01:07:53;100803.53;;;20.22;65.08
13705;BME280;6924;52.122;9.952;2022-09-06T01:10:35;100810.16;;;19.91;65.83
13705;BME280;6924;52.122;9.952;2022-09-06T01:13:14;100814.63;;;20.04;65.33
13705;BME280;6924;52.122;9.952;2022-09-06T01:15:47;100811.00;;;20.07;65.19
13705;BME280;6924;52.122;9.952;2022-09-06T01:18:22;100808.47;;;20.06;65.64
13705;BME280;6924;52.122;9.952;2022-09-06T01:21:03;100804.22;;;19.99;65.71
13705;BME280;6924;52.122;9.952;2022-09-06T01:24:01;100801.66;;;19.94;65.83
13705;BME280;6924;52.122;9.952;2022-09-06T01:29:29;100797.00;;;20.06;65.26
13705;BME280;6924;52.122;9.952;2022-09-06T01:32:02;100801.16;;;20.08;65.59
13705;BME280;6924;52.122;9.952;2022-09-06T01:34:33;100789.22;;;20.06;65.92
13705;BME280;6924;52.122;9.952;2022-09-06T01:37:04;100783.09;;;20.08;65.65
13705;BME280;6924;52.122;9.952;2022-09-06T01:39:34;100784.69;;;20.05;65.72
13705;BME280;6924;52.122;9.952;2022-09-06T01:42:05;100776.19;;;19.93;66.30
13705;BME280;6924;52.122;9.952;2022-09-06T01:44:35;100781.41;;;19.87;66.07
13705;BME280;6924;52.122;9.952;2022-09-06T01:47:11;100778.53;;;19.87;65.99
13705;BME280;6924;52.122;9.952;2022-09-06T01:49:47;100771.69;;;19.76;66.46
13705;BME280;6924;52.122;9.952;2022-09-06T01:52:20;100768.38;;;19.74;66.45
13705;BME280;6924;52.122;9.952;2022-09-06T01:55:10;100769.09;;;19.71;66.50
13705;BME280;6924;52.122;9.952;2022-09-06T01:57:49;100772.13;;;19.62;66.72
13705;BME280;6924;52.122;9.952;2022-09-06T02:00:21;100771.75;;;19.64;66.71
13705;BME280;6924;52.122;9.952;2022-09-06T02:02:55;100762.44;;;19.67;66.41
13705;BME280;6924;52.122;9.952;2022-09-06T02:05:27;100767.50;;;19.57;66.66
13705;BME280;6924;52.122;9.952;2022-09-06T02:07:58;100765.94;;;19.60;66.60
13705;BME280;6924;52.122;9.952;2022-09-06T02:10:30;100759.47;;;19.47;66.92
13705;BME280;6924;52.122;9.952;2022-09-06T02:12:59;100767.88;;;19.40;67.14
13705;BME280;6924;52.122;9.952;2022-09-06T02:15:32;100766.50;;;19.34;67.47
13705;BME280;6924;52.122;9.952;2022-09-06T02:18:01;100770.03;;;19.27;67.60
13705;BME280;6924;52.122;9.952;2022-09-06T02:20:30;100766.88;;;19.32;67.36
13705;BME280;6924;52.122;9.952;2022-09-06T02:23:01;100762.06;;;19.36;67.30
13705;BME280;6924;52.122;9.952;2022-09-06T02:25:33;100759.19;;;19.20;67.57
13705;BME280;6924;52.122;9.952;2022-09-06T02:28:01;100763.63;;;19.18;67.89
13705;BME280;6924;52.122;9.952;2022-09-06T02:30:30;100760.09;;;19.25;67.67
13705;BME280;6924;52.122;9.952;2022-09-06T02:33:00;100755.69;;;19.27;67.29
13705;BME280;6924;52.122;9.952;2022-09-06T02:35:28;100744.00;;;19.20;67.54
13705;BME280;6924;52.122;9.952;2022-09-06T02:37:55;100736.53;;;19.15;67.52
13705;BME280;6924;52.122;9.952;2022-09-06T02:40:22;100738.09;;;19.13;67.54
13705;BME280;6924;52.122;9.952;2022-09-06T02:42:49;100747.16;;;19.15;67.29
13705;BME280;6924;52.122;9.952;2022-09-06T02:45:15;100750.22;;;19.06;67.66
13705;BME280;6924;52.122;9.952;2022-09-06T02:47:43;100750.22;;;19.06;67.67
13705;BME280;6924;52.122;9.952;2022-09-06T02:50:09;100749.38;;;19.06;67.54
13705;BME280;6924;52.122;9.952;2022-09-06T02:52:37;100745.41;;;19.10;67.13
13705;BME280;6924;52.122;9.952;2022-09-06T02:55:04;100745.88;;;19.12;67.13
13705;BME280;6924;52.122;9.952;2022-09-06T02:57:31;100759.16;;;19.05;67.34
13705;BME280;6924;52.122;9.952;2022-09-06T02:59:57;100753.72;;;18.99;67.51
13705;BME280;6924;52.122;9.952;2022-09-06T03:02:24;100751.50;;;18.93;67.75
13705;BME280;6924;52.122;9.952;2022-09-06T03:04:52;100744.34;;;18.87;67.94
13705;BME280;6924;52.122;9.952;2022-09-06T03:07:18;100738.16;;;18.85;67.84
13705;BME280;6924;52.122;9.952;2022-09-06T03:09:45;100739.00;;;18.85;67.87
13705;BME280;6924;52.122;9.952;2022-09-06T03:12:11;100744.00;;;18.88;67.73
13705;BME280;6924;52.122;9.952;2022-09-06T03:14:38;100749.63;;;18.85;67.64
13705;BME280;6924;52.122;9.952;2022-09-06T03:17:05;100755.00;;;18.74;68.00
13705;BME280;6924;52.122;9.952;2022-09-06T03:19:32;100759.91;;;18.73;67.72
13705;BME280;6924;52.122;9.952;2022-09-06T03:22:00;100763.38;;;18.79;67.67
13705;BME280;6924;52.122;9.952;2022-09-06T03:24:26;100743.19;;;18.75;67.70
13705;BME280;6924;52.122;9.952;2022-09-06T03:26:52;100751.94;;;18.67;67.92
13705;BME280;6924;52.122;9.952;2022-09-06T03:29:19;100741.13;;;18.60;67.96
13705;BME280;6924;52.122;9.952;2022-09-06T03:31:45;100735.66;;;18.55;68.15
13705;BME280;6924;52.122;9.952;2022-09-06T03:34:12;100737.13;;;18.49;68.44
13705;BME280;6924;52.122;9.952;2022-09-06T03:36:38;100746.81;;;18.44;68.53
13705;BME280;6924;52.122;9.952;2022-09-06T03:39:06;100747.06;;;18.39;68.87
13705;BME280;6924;52.122;9.952;2022-09-06T03:41:32;100751.25;;;18.42;68.63
13705;BME280;6924;52.122;9.952;2022-09-06T03:43:59;100749.94;;;18.39;68.67
13705;BME280;6924;52.122;9.952;2022-09-06T03:46:25;100749.56;;;18.41;68.76
13705;BME280;6924;52.122;9.952;2022-09-06T03:48:55;100758.53;;;18.39;68.36
13705;BME280;6924;52.122;9.952;2022-09-06T03:51:21;100747.91;;;18.40;68.57
13705;BME280;6924;52.122;9.952;2022-09-06T03:53:48;100752.22;;;18.33;68.94
13705;BME280;6924;52.122;9.952;2022-09-06T03:56:15;100746.13;;;18.35;68.66
13705;BME280;6924;52.122;9.952;2022-09-06T03:58:42;100744.72;;;18.29;68.70
13705;BME280;6924;52.122;9.952;2022-09-06T04:01:10;100747.09;;;18.27;68.88
13705;BME280;6924;52.122;9.952;2022-09-06T04:03:37;100748.66;;;18.24;68.88
13705;BME280;6924;52.122;9.952;2022-09-06T04:06:04;100753.66;;;18.27;68.76
13705;BME280;6924;52.122;9.952;2022-09-06T04:08:31;100758.56;;;18.27;68.69
13705;BME280;6924;52.122;9.952;2022-09-06T04:10:58;100752.94;;;18.30;68.44
13705;BME280;6924;52.122;9.952;2022-09-06T04:13:27;100745.44;;;18.26;68.49
13705;BME280;6924;52.122;9.952;2022-09-06T04:15:54;100753.66;;;18.27;68.41
13705;BME280;6924;52.122;9.952;2022-09-06T04:18:21;100756.03;;;18.25;68.57
13705;BME280;6924;52.122;9.952;2022-09-06T04:20:49;100752.28;;;18.21;68.63
13705;BME280;6924;52.122;9.952;2022-09-06T04:23:16;100740.22;;;18.15;68.65
13705;BME280;6924;52.122;9.952;2022-09-06T04:25:44;100743.09;;;18.15;68.47
13705;BME280;6924;52.122;9.952;2022-09-06T04:28:12;100746.81;;;18.04;69.22
13705;BME280;6924;52.122;9.952;2022-09-06T04:30:39;100745.41;;;17.98;69.15
13705;BME280;6924;52.122;9.952;2022-09-06T04:33:06;100736.22;;;17.92;69.45
13705;BME280;6924;52.122;9.952;2022-09-06T04:35:32;100729.56;;;17.75;69.17
13705;BME280;6924;52.122;9.952;2022-09-06T04:37:59;100728.47;;;17.80;69.13
13705;BME280;6924;52.122;9.952;2022-09-06T04:40:25;100746.38;;;17.65;69.49
13705;BME280;6924;52.122;9.952;2022-09-06T04:42:52;100733.63;;;17.62;69.35
13705;BME280;6924;52.122;9.952;2022-09-06T04:45:18;100729.06;;;17.61;69.21
13705;BME280;6924;52.122;9.952;2022-09-06T04:47:46;100724.09;;;17.58;69.30
13705;BME280;6924;52.122;9.952;2022-09-06T04:50:14;100727.31;;;17.44;69.91
13705;BME280;6924;52.122;9.952;2022-09-06T04:52:40;100722.91;;;17.34;69.98
13705;BME280;6924;52.122;9.952;2022-09-06T04:55:08;100719.81;;;17.40;69.60
13705;BME280;6924;52.122;9.952;2022-09-06T04:57:35;100725.53;;;17.40;69.97
13705;BME280;6924;52.122;9.952;2022-09-06T05:00:01;100723.97;;;17.42;69.39
13705;BME280;6924;52.122;9.952;2022-09-06T05:02:28;100731.72;;;17.42;69.21
13705;BME280;6924;52.122;9.952;2022-09-06T05:04:56;100735.28;;;17.39;69.00
13705;BME280;6924;52.122;9.952;2022-09-06T05:07:22;100742.06;;;17.22;69.96
13705;BME280;6924;52.122;9.952;2022-09-06T05:09:49;100737.91;;;17.19;70.15
13705;BME280;6924;52.122;9.952;2022-09-06T05:12:15;100741.97;;;17.18;69.74
13705;BME280;6924;52.122;9.952;2022-09-06T05:14:42;100737.78;;;17.16;70.13
13705;BME280;6924;52.122;9.952;2022-09-06T05:17:08;100737.06;;;17.19;70.05
13705;BME280;6924;52.122;9.952;2022-09-06T05:19:35;100738.84;;;17.11;70.50
13705;BME280;6924;52.122;9.952;2022-09-06T05:22:03;100739.06;;;17.06;70.28
13705;BME280;6924;52.122;9.952;2022-09-06T05:24:29;100746.47;;;17.07;70.37
13705;BME280;6924;52.122;9.952;2022-09-06T05:26:55;100740.38;;;17.08;70.11
13705;BME280;6924;52.122;9.952;2022-09-06T05:29:22;100742.66;;;17.03;70.51
13705;BME280;6924;52.122;9.952;2022-09-06T05:31:49;100730.97;;;16.96;70.78
13705;BME280;6924;52.122;9.952;2022-09-06T05:34:16;100735.38;;;17.05;70.24
13705;BME280;6924;52.122;9.952;2022-09-06T05:36:42;100727.28;;;17.07;70.44
13705;BME280;6924;52.122;9.952;2022-09-06T05:39:11;100733.72;;;17.04;70.10
13705;BME280;6924;52.122;9.952;2022-09-06T05:41:38;100731.81;;;17.08;69.97
13705;BME280;6924;52.122;9.952;2022-09-06T05:44:04;100735.72;;;17.04;70.06
13705;BME280;6924;52.122;9.952;2022-09-06T05:46:30;100727.25;;;16.95;70.08
13705;BME280;6924;52.122;9.952;2022-09-06T05:48:58;100736.78;;;16.99;70.19
13705;BME280;6924;52.122;9.952;2022-09-06T05:51:28;100728.13;;;16.96;70.39
13705;BME280;6924;52.122;9.952;2022-09-06T05:53:55;100735.97;;;16.99;70.34
13705;BME280;6924;52.122;9.952;2022-09-06T05:56:23;100732.88;;;16.91;70.57
13705;BME280;6924;52.122;9.952;2022-09-06T05:58:49;100735.34;;;16.93;70.66
13705;BME280;6924;52.122;9.952;2022-09-06T06:01:18;100731.31;;;16.94;70.82
13705;BME280;6924;52.122;9.952;2022-09-06T06:03:49;100727.97;;;16.92;70.74
13705;BME280;6924;52.122;9.952;2022-09-06T06:06:16;100731.31;;;16.94;70.50
13705;BME280;6924;52.122;9.952;2022-09-06T06:08:43;100737.63;;;17.00;70.43
13705;BME280;6924;52.122;9.952;2022-09-06T06:11:09;100739.06;;;17.06;70.19
13705;BME280;6924;52.122;9.952;2022-09-06T06:13:37;100738.84;;;17.11;70.14
13705;BME280;6924;52.122;9.952;2022-09-06T06:16:05;100745.41;;;17.11;70.30
13705;BME280;6924;52.122;9.952;2022-09-06T06:18:31;100741.72;;;17.11;70.08
13705;BME280;6924;52.122;9.952;2022-09-06T06:21:09;100746.72;;;17.14;69.88
13705;BME280;6924;52.122;9.952;2022-09-06T06:23:36;100738.97;;;17.14;69.97
13705;BME280;6924;52.122;9.952;2022-09-06T06:26:02;100752.66;;;17.09;70.26
13705;BME280;6924;52.122;9.952;2022-09-06T06:28:29;100761.47;;;17.16;69.55
13705;BME280;6924;52.122;9.952;2022-09-06T06:30:57;100765.03;;;17.13;69.94
13705;BME280;6924;52.122;9.952;2022-09-06T06:33:23;100766.47;;;17.19;69.67
13705;BME280;6924;52.122;9.952;2022-09-06T06:35:57;100766.75;;;17.26;69.60
13705;BME280;6924;52.122;9.952;2022-09-06T06:38:23;100769.47;;;17.35;69.67
13705;BME280;6924;52.122;9.952;2022-09-06T06:40:50;100771.28;;;17.40;69.36
13705;BME280;6924;52.122;9.952;2022-09-06T06:43:16;100775.66;;;17.37;69.63
13705;BME280;6924;52.122;9.952;2022-09-06T06:45:47;100775.94;;;17.44;69.59
13705;BME280;6924;52.122;9.952;2022-09-06T06:48:15;100766.28;;;17.49;69.27
13705;BME280;6924;52.122;9.952;2022-09-06T06:50:42;100765.66;;;17.43;69.18
13705;BME280;6924;52.122;9.952;2022-09-06T06:53:08;100767.84;;;17.46;68.61
13705;BME280;6924;52.122;9.952;2022-09-06T06:55:35;100776.88;;;17.48;68.76
13705;BME280;6924;52.122;9.952;2022-09-06T06:58:02;100782.56;;;17.24;69.32
13705;BME280;6924;52.122;9.952;2022-09-06T07:00:28;100790.19;;;17.32;68.57
13705;BME280;6924;52.122;9.952;2022-09-06T07:02:54;100785.19;;;17.41;68.66
13705;BME280;6924;52.122;9.952;2022-09-06T07:05:22;100783.19;;;17.42;68.70
13705;BME280;6924;52.122;9.952;2022-09-06T07:07:49;100771.75;;;17.42;68.89
13705;BME280;6924;52.122;9.952;2022-09-06T07:10:15;100775.44;;;17.42;68.90
13705;BME280;6924;52.122;9.952;2022-09-06T07:12:42;100775.44;;;17.42;68.96
13705;BME280;6924;52.122;9.952;2022-09-06T07:15:08;100786.50;;;17.31;68.57
13705;BME280;6924;52.122;9.952;2022-09-06T07:17:35;100777.69;;;17.24;69.14
13705;BME280;6924;52.122;9.952;2022-09-06T07:20:02;100772.81;;;17.37;68.79
13705;BME280;6924;52.122;9.952;2022-09-06T07:22:29;100774.16;;;17.40;68.74
13705;BME280;6924;52.122;9.952;2022-09-06T07:24:56;100771.63;;;17.50;68.51
13705;BME280;6924;52.122;9.952;2022-09-06T07:27:22;100770.09;;;17.41;68.77
13705;BME280;6924;52.122;9.952;2022-09-06T07:29:49;100767.56;;;17.39;68.81
13705;BME280;6924;52.122;9.952;2022-09-06T07:32:15;100782.00;;;17.43;68.81
13705;BME280;6924;52.122;9.952;2022-09-06T07:34:41;100782.47;;;17.57;67.91
13705;BME280;6924;52.122;9.952;2022-09-06T07:37:08;100792.47;;;17.63;68.16
13705;BME280;6924;52.122;9.952;2022-09-06T07:39:36;100777.47;;;17.66;68.06
13705;BME280;6924;52.122;9.952;2022-09-06T07:42:03;100787.13;;;17.49;68.50
13705;BME280;6924;52.122;9.952;2022-09-06T07:44:30;100780.81;;;17.31;69.09
13705;BME280;6924;52.122;9.952;2022-09-06T07:46:57;100772.81;;;17.37;69.21
13705;BME280;6924;52.122;9.952;2022-09-06T07:49:27;100779.50;;;17.29;69.85
13705;BME280;6924;52.122;9.952;2022-09-06T07:51:53;100785.59;;;17.40;69.57
13705;BME280;6924;52.122;9.952;2022-09-06T07:54:21;100783.41;;;17.61;68.71
13705;BME280;6924;52.122;9.952;2022-09-06T07:56:48;100781.53;;;17.53;68.40
13705;BME280;6924;52.122;9.952;2022-09-06T07:59:15;100780.94;;;17.47;68.94
13705;BME280;6924;52.122;9.952;2022-09-06T08:01:42;100783.56;;;17.65;68.07
13705;BME280;6924;52.122;9.952;2022-09-06T08:04:10;100792.97;;;17.77;67.70
13705;BME280;6924;52.122;9.952;2022-09-06T08:06:39;100776.41;;;17.83;67.80
13705;BME280;6924;52.122;9.952;2022-09-06T08:09:07;100770.81;;;17.99;67.33
13705;BME280;6924;52.122;9.952;2022-09-06T08:11:35;100774.84;;;17.98;66.96
13705;BME280;6924;52.122;9.952;2022-09-06T08:14:05;100770.81;;;17.99;67.09
13705;BME280;6924;52.122;9.952;2022-09-06T08:16:33;100779.69;;;18.10;66.26
13705;BME280;6924;52.122;9.952;2022-09-06T08:19:02;100778.88;;;18.09;66.71
13705;BME280;6924;52.122;9.952;2022-09-06T08:21:30;100784.25;;;17.99;67.21
13705;BME280;6924;52.122;9.952;2022-09-06T08:23:59;100782.00;;;17.92;67.11
13705;BME280;6924;52.122;9.952;2022-09-06T08:26:27;100779.75;;;17.85;67.08
13705;BME280;6924;52.122;9.952;2022-09-06T08:28:55;100777.22;;;17.96;68.19
13705;BME280;6924;52.122;9.952;2022-09-06T08:31:26;100780.03;;;18.21;67.00
13705;BME280;6924;52.122;9.952;2022-09-06T08:33:53;100778.44;;;18.35;66.58
13705;BME280;6924;52.122;9.952;2022-09-06T08:36:20;100777.34;;;18.52;66.83
13705;BME280;6924;52.122;9.952;2022-09-06T08:38:47;100769.72;;;18.72;66.18
13705;BME280;6924;52.122;9.952;2022-09-06T08:41:22;100773.56;;;18.64;66.39
13705;BME280;6924;52.122;9.952;2022-09-06T08:43:51;100778.69;;;18.71;66.65
13705;BME280;6924;52.122;9.952;2022-09-06T08:46:21;100772.66;;;18.88;65.59
13705;BME280;6924;52.122;9.952;2022-09-06T08:48:51;100768.84;;;18.84;65.36
13705;BME280;6924;52.122;9.952;2022-09-06T08:51:38;100771.59;;;18.81;65.17
13705;BME280;6924;52.122;9.952;2022-09-06T08:54:11;100769.34;;;18.74;65.48
13705;BME280;6924;52.122;9.952;2022-09-06T08:56:43;100756.84;;;18.66;66.23
13705;BME280;6924;52.122;9.952;2022-09-06T08:59:15;100751.19;;;18.82;65.10
13705;BME280;6924;52.122;9.952;2022-09-06T09:01:50;100743.81;;;18.81;64.65
13705;BME280;6924;52.122;9.952;2022-09-06T09:04:25;100739.19;;;18.92;64.55
13705;BME280;6924;52.122;9.952;2022-09-06T09:06:58;100743.84;;;19.13;64.72
13705;BME280;6924;52.122;9.952;2022-09-06T09:09:29;100733.94;;;19.10;64.07
13705;BME280;6924;52.122;9.952;2022-09-06T09:11:58;100743.47;;;18.98;64.20
13705;BME280;6924;52.122;9.952;2022-09-06T09:14:28;100738.63;;;19.03;64.59
13705;BME280;6924;52.122;9.952;2022-09-06T09:16:59;100734.75;;;19.11;64.43
13705;BME280;6924;52.122;9.952;2022-09-06T09:19:28;100728.66;;;19.28;63.66
13705;BME280;6924;52.122;9.952;2022-09-06T09:21:57;100740.31;;;19.35;62.97
13705;BME280;6924;52.122;9.952;2022-09-06T09:24:24;100735.91;;;19.38;62.23
13705;BME280;6924;52.122;9.952;2022-09-06T09:26:53;100739.47;;;19.51;62.40
13705;BME280;6924;52.122;9.952;2022-09-06T09:29:22;100734.03;;;19.46;61.90
13705;BME280;6924;52.122;9.952;2022-09-06T09:31:51;100733.47;;;19.56;62.38
13705;BME280;6924;52.122;9.952;2022-09-06T09:34:29;100732.25;;;19.73;60.92
13705;BME280;6924;52.122;9.952;2022-09-06T09:37:10;100734.44;;;19.79;61.49
13705;BME280;6924;52.122;9.952;2022-09-06T09:39:38;100719.38;;;19.67;61.36
13705;BME280;6924;52.122;9.952;2022-09-06T09:42:06;100716.03;;;19.80;60.68
13705;BME280;6924;52.122;9.952;2022-09-06T09:44:33;100716.53;;;20.02;60.95
13705;BME280;6924;52.122;9.952;2022-09-06T09:47:11;100714.03;;;20.00;60.45
13705;BME280;6924;52.122;9.952;2022-09-06T09:49:48;100711.19;;;20.20;59.89
13705;BME280;6924;52.122;9.952;2022-09-06T09:52:16;100709.59;;;20.22;60.06
13705;BME280;6924;52.122;9.952;2022-09-06T09:54:48;100702.41;;;20.32;59.65
13705;BME280;6924;52.122;9.952;2022-09-06T09:57:20;100696.88;;;20.43;59.93
13705;BME280;6924;52.122;9.952;2022-09-06T09:59:50;100686.81;;;20.72;58.50
13705;BME280;6924;52.122;9.952;2022-09-06T10:02:21;100684.47;;;20.78;58.24
13705;BME280;6924;52.122;9.952;2022-09-06T10:04:52;100684.22;;;21.10;57.64
13705;BME280;6924;52.122;9.952;2022-09-06T10:07:24;100679.16;;;21.03;56.37
13705;BME280;6924;52.122;9.952;2022-09-06T10:09:56;100680.59;;;21.13;56.24
13705;BME280;6924;52.122;9.952;2022-09-06T10:12:28;100693.59;;;21.30;56.74
13705;BME280;6924;52.122;9.952;2022-09-06T10:14:54;100692.13;;;21.39;56.00
13705;BME280;6924;52.122;9.952;2022-09-06T10:17:28;100691.38;;;21.42;55.00
13705;BME280;6924;52.122;9.952;2022-09-06T10:19:59;100694.03;;;21.32;55.80
13705;BME280;6924;52.122;9.952;2022-09-06T10:22:27;100686.84;;;21.41;55.76
13705;BME280;6924;52.122;9.952;2022-09-06T10:25:29;100689.25;;;21.39;55.56
13705;BME280;6924;52.122;9.952;2022-09-06T10:28:32;100691.31;;;21.39;55.28
13705;BME280;6924;52.122;9.952;2022-09-06T10:31:35;100684.41;;;21.43;56.04
13705;BME280;6924;52.122;9.952;2022-09-06T10:37:24;100668.06;;;21.51;54.83
13705;BME280;6924;52.122;9.952;2022-09-06T10:39:55;100670.78;;;21.67;56.16
13705;BME280;6924;52.122;9.952;2022-09-06T10:42:28;100660.66;;;21.77;54.65
13705;BME280;6924;52.122;9.952;2022-09-06T10:45:16;100664.97;;;21.90;54.02
13705;BME280;6924;52.122;9.952;2022-09-06T10:47:57;100655.06;;;22.21;53.86
13705;BME280;6924;52.122;9.952;2022-09-06T10:50:32;100663.16;;;22.39;53.13
13705;BME280;6924;52.122;9.952;2022-09-06T10:53:06;100668.78;;;22.65;51.64
13705;BME280;6924;52.122;9.952;2022-09-06T10:55:36;100671.00;;;22.79;52.15
13705;BME280;6924;52.122;9.952;2022-09-06T10:58:05;100667.91;;;22.99;51.90
13705;BME280;6924;52.122;9.952;2022-09-06T11:00:36;100670.53;;;23.11;49.81
13705;BME280;6924;52.122;9.952;2022-09-06T11:03:09;100662.00;;;23.29;49.45
13705;BME280;6924;52.122;9.952;2022-09-06T11:05:43;100659.31;;;23.54;48.63
13705;BME280;6924;52.122;9.952;2022-09-06T11:08:14;100651.69;;;23.83;47.70
13705;BME280;6924;52.122;9.952;2022-09-06T11:10:44;100650.13;;;24.00;47.88
13705;BME280;6924;52.122;9.952;2022-09-06T11:13:15;100644.59;;;23.73;47.45
13705;BME280;6924;52.122;9.952;2022-09-06T11:15:44;100648.47;;;24.03;47.54
13705;BME280;6924;52.122;9.952;2022-09-06T11:18:16;100640.19;;;23.94;49.11
13705;BME280;6924;52.122;9.952;2022-09-06T11:20:51;100645.63;;;24.06;48.50
13705;BME280;6924;52.122;9.952;2022-09-06T11:23:33;100631.16;;;24.03;47.74
13705;BME280;6924;52.122;9.952;2022-09-06T11:26:26;100637.78;;;24.03;47.60
13705;BME280;6924;52.122;9.952;2022-09-06T11:28:55;100632.53;;;24.34;47.83
13705;BME280;6924;52.122;9.952;2022-09-06T11:31:25;100622.19;;;24.40;46.09
13705;BME280;6924;52.122;9.952;2022-09-06T11:34:04;100623.97;;;24.63;46.00
13705;BME280;6924;52.122;9.952;2022-09-06T11:36:35;100626.44;;;24.71;45.65
13705;BME280;6924;52.122;9.952;2022-09-06T11:39:04;100625.22;;;24.65;45.99
13705;BME280;6924;52.122;9.952;2022-09-06T11:41:33;100614.03;;;24.78;46.06
13705;BME280;6924;52.122;9.952;2022-09-06T11:44:01;100612.00;;;24.86;45.37
13705;BME280;6924;52.122;9.952;2022-09-06T11:46:56;100613.63;;;24.87;45.48
13705;BME280;6924;52.122;9.952;2022-09-06T11:49:32;100619.44;;;24.87;45.07
13705;BME280;6924;52.122;9.952;2022-09-06T11:51:59;100613.25;;;24.88;45.81
13705;BME280;6924;52.122;9.952;2022-09-06T11:54:33;100612.84;;;25.08;45.35
13705;BME280;6924;52.122;9.952;2022-09-06T11:57:09;100612.00;;;25.14;44.63
13705;BME280;6924;52.122;9.952;2022-09-06T11:59:43;100607.91;;;25.19;44.46
13705;BME280;6924;52.122;9.952;2022-09-06T12:02:33;100604.59;;;25.31;44.67
13705;BME280;6924;52.122;9.952;2022-09-06T12:05:21;100603.34;;;25.22;45.14
13705;BME280;6924;52.122;9.952;2022-09-06T12:11:01;100603.75;;;25.24;45.00
13705;BME280;6924;52.122;9.952;2022-09-06T12:13:55;100596.31;;;25.30;45.05
13705;BME280;6924;52.122;9.952;2022-09-06T12:16:24;100589.69;;;25.11;45.33
13705;BME280;6924;52.122;9.952;2022-09-06T12:19:43;100590.50;;;24.90;45.47
13705;BME280;6924;52.122;9.952;2022-09-06T12:25:51;100590.50;;;25.12;45.62
13705;BME280;6924;52.122;9.952;2022-09-06T12:28:27;100588.03;;;24.96;45.09
13705;BME280;6924;52.122;9.952;2022-09-06T12:30:56;100578.94;;;24.80;45.88
13705;BME280;6924;52.122;9.952;2022-09-06T12:33:26;100585.13;;;24.89;46.52
13705;BME280;6924;52.122;9.952;2022-09-06T12:36:12;100571.09;;;24.98;46.11
13705;BME280;6924;52.122;9.952;2022-09-06T12:38:53;100580.19;;;25.04;45.85
13705;BME280;6924;52.122;9.952;2022-09-06T12:41:19;100574.00;;;25.20;46.09
13705;BME280;6924;52.122;9.952;2022-09-06T12:43:48;100574.41;;;25.22;45.91
13705;BME280;6924;52.122;9.952;2022-09-06T12:46:15;100571.53;;;25.29;45.24
13705;BME280;6924;52.122;9.952;2022-09-06T12:48:41;100567.31;;;25.44;45.70
13705;BME280;6924;52.122;9.952;2022-09-06T12:51:16;100566.94;;;25.42;45.27
13705;BME280;6924;52.122;9.952;2022-09-06T12:53:48;100563.19;;;25.56;44.97
13705;BME280;6924;52.122;9.952;2022-09-06T12:56:19;100559.84;;;25.65;44.25
13705;BME280;6924;52.122;9.952;2022-09-06T12:58:47;100549.94;;;25.44;44.40
13705;BME280;6924;52.122;9.952;2022-09-06T13:01:16;100552.00;;;25.51;45.27
13705;BME280;6924;52.122;9.952;2022-09-06T13:03:53;100541.69;;;25.53;44.87
13705;BME280;6924;52.122;9.952;2022-09-06T13:06:22;100546.59;;;25.64;44.57
13705;BME280;6924;52.122;9.952;2022-09-06T13:08:52;100539.13;;;25.66;44.66
13705;BME280;6924;52.122;9.952;2022-09-06T13:11:24;100541.19;;;25.66;44.74
13705;BME280;6924;52.122;9.952;2022-09-06T13:13:53;100531.28;;;25.63;44.47
13705;BME280;6924;52.122;9.952;2022-09-06T13:16:22;100532.53;;;25.62;44.17
13705;BME280;6924;52.122;9.952;2022-09-06T13:18:49;100536.22;;;25.73;44.56
13705;BME280;6924;52.122;9.952;2022-09-06T13:21:24;100525.50;;;25.67;44.50
13705;BME280;6924;52.122;9.952;2022-09-06T13:23:51;100528.81;;;25.62;44.04
13705;BME280;6924;52.122;9.952;2022-09-06T13:26:32;100530.06;;;25.57;44.01
13705;BME280;6924;52.122;9.952;2022-09-06T13:29:09;100518.84;;;25.66;45.07